Time;durP1;ratioP1;P1;durP2;ratioP2;P2;SDS_P1;SDS_P2;PMS_P1;PMS_P2;Temp;Humidity;BMP_temperature;BMP_pressure;BME280_temperature;BME280_humidity;BME280_pressure;Samples;Min_cycle;Max_cycle;Signal;HPM_P1;HPM_P2
2022/08/14 00:01:47;;;;;;;14.38;7.35;;;20.40;95.40;;;;;;5006415;28;20015;-90
2022/08/14 00:04:13;;;;;;;11.60;6.13;;;20.40;95.80;;;;;;5010822;28;20042;-94
2022/08/14 00:06:42;;;;;;;10.73;5.53;;;20.40;96.20;;;;;;5009741;28;20034;-88
2022/08/14 00:09:07;;;;;;;14.40;5.57;;;20.40;96.50;;;;;;5004961;28;20024;-90
2022/08/14 00:11:33;;;;;;;18.00;5.30;;;20.30;96.60;;;;;;5006520;28;20018;-90
2022/08/14 00:14:01;;;;;;;12.80;5.47;;;20.30;96.80;;;;;;5023548;28;20026;-90
2022/08/14 00:16:27;;;;;;;18.17;6.40;;;20.30;97.10;;;;;;5004403;28;20013;-91
2022/08/14 00:18:57;;;;;;;7.97;5.15;;;20.30;97.30;;;;;;5002849;28;20030;-94
2022/08/14 00:21:23;;;;;;;10.85;6.05;;;20.20;97.50;;;;;;5001772;28;20137;-91
2022/08/14 00:23:50;;;;;;;12.10;7.72;;;20.20;97.70;;;;;;5014973;28;20049;-93
2022/08/14 00:26:16;;;;;;;15.25;7.97;;;20.20;98.00;;;;;;5019661;28;20078;-92
2022/08/14 00:28:42;;;;;;;16.75;8.00;;;20.10;98.20;;;;;;5006855;28;20006;-92
2022/08/14 00:31:09;;;;;;;14.50;6.45;;;20.10;98.40;;;;;;5002724;28;20030;-92
2022/08/14 00:33:37;;;;;;;13.20;8.55;;;20.10;98.70;;;;;;5003689;28;20058;-92
2022/08/14 00:36:04;;;;;;;10.23;7.30;;;20.10;98.80;;;;;;5007812;28;20031;-93
2022/08/14 00:38:30;;;;;;;15.82;7.20;;;20.00;99.10;;;;;;5006913;28;20034;-91
2022/08/14 00:40:56;;;;;;;12.40;7.03;;;20.00;99.50;;;;;;4991888;28;20042;-93
2022/08/14 00:43:22;;;;;;;14.23;7.22;;;19.90;99.70;;;;;;5002575;28;20118;-95
2022/08/14 00:45:49;;;;;;;16.38;8.15;;;19.90;99.90;;;;;;5002699;28;20018;-88
2022/08/14 00:48:17;;;;;;;15.82;8.43;;;19.90;99.90;;;;;;5019864;28;20041;-92
2022/08/14 00:50:45;;;;;;;16.67;9.40;;;19.90;99.90;;;;;;5000729;28;20022;-93
2022/08/14 00:53:15;;;;;;;16.33;9.77;;;19.90;99.90;;;;;;5020793;28;20014;-92
2022/08/14 00:55:42;;;;;;;14.17;8.67;;;19.90;99.90;;;;;;5007284;28;20015;-91
2022/08/14 01:00:53;;;;;;;18.75;9.90;;;19.80;99.90;;;;;;5024094;28;20037;-94
2022/08/14 01:03:20;;;;;;;17.17;9.55;;;19.80;99.90;;;;;;5006145;28;20019;-95
2022/08/14 01:05:52;;;;;;;14.30;9.35;;;19.80;99.90;;;;;;5022955;28;20030;-93
2022/08/14 01:08:22;;;;;;;18.67;11.10;;;19.70;99.90;;;;;;5006102;28;20022;-94
2022/08/14 01:10:50;;;;;;;24.50;13.35;;;19.70;99.90;;;;;;5007126;28;20047;-93
2022/08/14 01:13:23;;;;;;;20.45;10.60;;;19.60;99.90;;;;;;5022311;28;20133;-92
2022/08/14 01:15:56;;;;;;;17.95;10.32;;;19.60;99.90;;;;;;5005242;28;20026;-93
2022/08/14 01:21:16;;;;;;;23.60;11.30;;;19.50;99.90;;;;;;5015628;28;20037;-90
2022/08/14 01:23:49;;;;;;;19.02;11.50;;;19.40;99.90;;;;;;5018089;28;20031;-95
2022/08/14 01:26:19;;;;;;;22.23;11.02;;;19.40;99.90;;;;;;5002449;28;20064;-87
2022/08/14 01:28:48;;;;;;;19.02;11.48;;;19.30;99.90;;;;;;5019698;28;20033;-91
2022/08/14 01:31:17;;;;;;;22.05;11.55;;;19.30;99.90;;;;;;5025021;28;20025;-90
2022/08/14 01:34:00;;;;;;;17.85;11.43;;;19.20;99.90;;;;;;5128937;27;20415;-89
2022/08/14 01:36:28;;;;;;;20.13;11.63;;;19.20;99.90;;;;;;5130403;27;20079;-90
2022/08/14 01:38:57;;;;;;;21.08;12.18;;;19.10;99.90;;;;;;5128584;27;20266;-92
2022/08/14 01:41:26;;;;;;;23.20;13.13;;;19.00;99.90;;;;;;5131140;27;20016;-92
2022/08/14 01:44:00;;;;;;;14.57;10.95;;;19.00;99.90;;;;;;5132663;27;20035;-93
2022/08/14 01:46:33;;;;;;;16.60;11.00;;;18.90;99.90;;;;;;5133277;27;20016;-86
2022/08/14 01:48:59;;;;;;;16.08;10.50;;;18.90;99.90;;;;;;5132129;27;20008;-92
2022/08/14 01:51:27;;;;;;;20.42;11.68;;;18.90;99.90;;;;;;5131341;28;20008;-92
2022/08/14 01:53:59;;;;;;;17.30;11.65;;;18.80;99.90;;;;;;5131800;28;20019;-93
2022/08/14 01:56:39;;;;;;;19.05;12.35;;;18.80;99.90;;;;;;5131970;28;20049;-94
2022/08/14 01:59:08;;;;;;;19.70;12.43;;;18.80;99.90;;;;;;5132229;27;20012;-94
2022/08/14 02:01:35;;;;;;;20.02;12.23;;;18.80;99.90;;;;;;5136392;27;20019;-91
2022/08/14 02:04:02;;;;;;;22.95;12.85;;;18.70;99.90;;;;;;5126120;28;20050;-95
2022/08/14 02:06:29;;;;;;;18.15;12.40;;;18.70;99.90;;;;;;5121925;28;20031;-96
2022/08/14 02:08:55;;;;;;;20.67;12.32;;;18.60;99.90;;;;;;5129846;28;20016;-92
2022/08/14 02:11:23;;;;;;;19.92;12.77;;;18.60;99.90;;;;;;5128475;28;20040;-95
2022/08/14 02:14:02;;;;;;;22.20;12.15;;;18.60;99.90;;;;;;5114956;28;20039;-90
2022/08/14 02:16:32;;;;;;;19.23;12.30;;;18.50;99.90;;;;;;5114567;28;20015;-95
2022/08/14 02:19:03;;;;;;;19.13;12.23;;;18.50;99.90;;;;;;5114186;28;20017;-95
2022/08/14 02:21:31;;;;;;;18.27;11.80;;;18.50;99.90;;;;;;5114059;28;20016;-95
2022/08/14 02:24:00;;;;;;;21.23;14.07;;;18.40;99.90;;;;;;5114084;28;20043;-92
2022/08/14 02:26:29;;;;;;;22.75;13.32;;;18.40;99.90;;;;;;5114147;28;20020;-85
2022/08/14 02:29:00;;;;;;;23.92;13.07;;;18.30;99.90;;;;;;5113807;28;20042;-88
2022/08/14 02:31:31;;;;;;;22.27;13.27;;;18.30;99.90;;;;;;5104673;28;20013;-89
2022/08/14 02:33:59;;;;;;;20.38;12.48;;;18.30;99.90;;;;;;5113418;28;20016;-95
2022/08/14 02:36:26;;;;;;;17.55;11.88;;;18.30;99.90;;;;;;5112848;28;20019;-94
2022/08/14 02:38:52;;;;;;;19.98;12.02;;;18.30;99.90;;;;;;5112852;28;20080;-96
2022/08/14 02:41:17;;;;;;;19.50;13.40;;;18.30;99.90;;;;;;5113511;28;20092;-96
2022/08/14 02:43:44;;;;;;;18.23;12.30;;;18.30;99.90;;;;;;5107444;28;20050;-95
2022/08/14 02:46:10;;;;;;;23.90;13.20;;;18.20;99.90;;;;;;5095692;28;20021;-95
2022/08/14 02:48:41;;;;;;;19.55;13.15;;;18.20;99.90;;;;;;5100169;28;20084;-94
2022/08/14 02:51:10;;;;;;;21.60;12.88;;;18.20;99.90;;;;;;5098127;28;20015;-93
2022/08/14 02:53:38;;;;;;;25.08;14.10;;;18.20;99.90;;;;;;5097300;28;20028;-95
2022/08/14 02:56:05;;;;;;;18.45;13.27;;;18.20;99.90;;;;;;5096009;28;20044;-96
2022/08/14 02:58:36;;;;;;;18.63;12.05;;;18.20;99.90;;;;;;5098189;28;20068;-90
2022/08/14 03:01:02;;;;;;;26.65;13.18;;;18.20;99.90;;;;;;5099106;28;20040;-96
2022/08/14 03:03:31;;;;;;;19.80;12.57;;;18.10;99.90;;;;;;5097570;28;20027;-93
2022/08/14 03:05:57;;;;;;;26.45;12.40;;;18.20;99.90;;;;;;5096741;28;20001;-93
2022/08/14 03:08:30;;;;;;;21.77;12.15;;;18.10;99.90;;;;;;5098416;28;20048;-95
2022/08/14 03:10:57;;;;;;;20.08;13.73;;;18.10;99.90;;;;;;5085432;28;20056;-95
2022/08/14 03:13:24;;;;;;;24.05;14.98;;;18.10;99.90;;;;;;5087746;28;20039;-95
2022/08/14 03:15:52;;;;;;;22.05;12.93;;;18.00;99.90;;;;;;5085999;28;20024;-95
2022/08/14 03:18:21;;;;;;;25.55;14.38;;;18.00;99.90;;;;;;5080683;28;20020;-95
2022/08/14 03:20:48;;;;;;;24.83;15.50;;;18.00;99.90;;;;;;5085316;28;20466;-95
2022/08/14 03:23:13;;;;;;;21.20;13.93;;;17.90;99.90;;;;;;5080483;28;20016;-92
2022/08/14 03:25:39;;;;;;;29.15;15.50;;;17.90;99.90;;;;;;5078914;28;20039;-95
2022/08/14 03:28:06;;;;;;;27.38;15.43;;;17.90;99.90;;;;;;5087170;28;20058;-90
2022/08/14 03:30:32;;;;;;;24.67;14.85;;;17.90;99.90;;;;;;5092786;28;20028;-91
2022/08/14 03:32:58;;;;;;;25.70;15.00;;;17.80;99.90;;;;;;5090521;28;20057;-93
2022/08/14 03:35:25;;;;;;;24.70;15.32;;;17.80;99.90;;;;;;5084797;28;20021;-94
2022/08/14 03:37:52;;;;;;;23.20;14.50;;;17.80;99.90;;;;;;5083862;28;20028;-93
2022/08/14 03:40:19;;;;;;;24.13;15.48;;;17.80;99.90;;;;;;5084127;28;20017;-95
2022/08/14 03:42:45;;;;;;;26.00;14.93;;;17.70;99.90;;;;;;5086574;28;20028;-91
2022/08/14 03:45:12;;;;;;;23.83;14.60;;;17.70;99.90;;;;;;5081015;28;20029;-91
2022/08/14 03:47:42;;;;;;;23.98;15.40;;;17.70;99.90;;;;;;5062659;28;20039;-94
2022/08/14 03:50:09;;;;;;;22.35;14.77;;;17.60;99.90;;;;;;5078753;28;20029;-94
2022/08/14 03:52:41;;;;;;;24.15;14.65;;;17.60;99.90;;;;;;5079346;28;20029;-94
2022/08/14 03:55:10;;;;;;;22.17;13.00;;;17.60;99.90;;;;;;5080162;28;20398;-94
2022/08/14 03:57:37;;;;;;;27.13;14.10;;;17.50;99.90;;;;;;5078974;28;20032;-94
2022/08/14 04:00:12;;;;;;;26.75;15.30;;;17.50;99.90;;;;;;5078956;28;20017;-95
2022/08/14 04:02:39;;;;;;;21.58;13.25;;;17.40;99.90;;;;;;5088405;28;20021;-93
2022/08/14 04:05:07;;;;;;;22.52;13.57;;;17.40;99.90;;;;;;5087024;28;20021;-94
2022/08/14 04:07:33;;;;;;;18.52;13.63;;;17.40;99.90;;;;;;5087557;28;20020;-93
2022/08/14 04:10:00;;;;;;;21.25;13.02;;;17.30;99.90;;;;;;5087363;28;20023;-92
2022/08/14 04:12:26;;;;;;;18.83;12.75;;;17.20;99.90;;;;;;5076482;28;20029;-94
2022/08/14 04:14:52;;;;;;;20.15;13.05;;;17.20;99.90;;;;;;5076929;28;20785;-95
2022/08/14 04:17:21;;;;;;;21.13;14.20;;;17.20;99.90;;;;;;5080887;28;20020;-95
2022/08/14 04:19:50;;;;;;;19.63;13.88;;;17.10;99.90;;;;;;5089544;28;20085;-94
2022/08/14 04:22:19;;;;;;;20.77;13.23;;;17.10;99.90;;;;;;5090601;28;20024;-95
2022/08/14 04:24:48;;;;;;;22.25;13.70;;;17.00;99.90;;;;;;5089417;28;20028;-95
2022/08/14 04:27:14;;;;;;;20.75;13.27;;;17.00;99.90;;;;;;5092937;28;20035;-94
2022/08/14 04:29:42;;;;;;;21.88;13.68;;;16.90;99.90;;;;;;5082781;28;20058;-94
2022/08/14 04:32:10;;;;;;;26.27;13.88;;;16.90;99.90;;;;;;5076203;28;20040;-94
2022/08/14 04:34:40;;;;;;;22.98;13.40;;;16.90;99.90;;;;;;5078865;28;20027;-93
2022/08/14 04:46:01;;;;;;;21.73;13.73;;;16.70;99.90;;;;;;5081942;28;20436;-95
2022/08/14 04:48:21;;;;;;;25.67;15.35;;;16.70;99.90;;;;;;5091824;28;20077;-95
2022/08/14 04:50:52;;;;;;;18.77;13.93;;;16.70;99.90;;;;;;5091387;28;20038;-94
2022/08/14 04:53:21;;;;;;;20.30;13.05;;;16.60;99.90;;;;;;5089196;28;20169;-96
2022/08/14 04:55:48;;;;;;;22.63;14.48;;;16.60;99.90;;;;;;5089344;28;20047;-95
2022/08/14 04:58:16;;;;;;;20.83;14.07;;;16.60;99.90;;;;;;5090213;28;20028;-95
2022/08/14 05:00:43;;;;;;;25.20;14.18;;;16.60;99.90;;;;;;5087145;28;20172;-95
2022/08/14 05:03:09;;;;;;;20.15;13.27;;;16.60;99.90;;;;;;5090937;28;20484;-94
2022/08/14 05:05:35;;;;;;;20.45;13.63;;;16.50;99.90;;;;;;5089810;28;20020;-93
2022/08/14 05:08:13;;;;;;;18.83;13.52;;;16.50;99.90;;;;;;5069082;28;20035;-96
2022/08/14 05:10:44;;;;;;;22.15;12.95;;;16.50;99.90;;;;;;5083158;28;20035;-90
2022/08/14 05:13:12;;;;;;;18.42;13.15;;;16.40;99.90;;;;;;5083221;28;20062;-95
2022/08/14 05:15:39;;;;;;;24.05;13.55;;;16.50;99.90;;;;;;5075151;28;20048;-95
2022/08/14 05:18:13;;;;;;;24.52;14.38;;;16.50;99.90;;;;;;5090167;28;20084;-91
2022/08/14 05:20:42;;;;;;;20.95;14.25;;;16.50;99.90;;;;;;5088000;28;20121;-95
2022/08/14 05:23:10;;;;;;;23.30;13.82;;;16.50;99.90;;;;;;5090573;28;20017;-89
2022/08/14 05:25:42;;;;;;;21.17;13.60;;;16.50;99.90;;;;;;5094187;28;20051;-93
2022/08/14 05:28:17;;;;;;;23.65;14.30;;;16.50;99.90;;;;;;5095224;28;20031;-85
2022/08/14 05:31:05;;;;;;;26.88;14.30;;;16.50;99.90;;;;;;5095770;28;20028;-92
2022/08/14 05:33:33;;;;;;;25.45;14.45;;;16.50;99.90;;;;;;5094835;28;20024;-85
2022/08/14 05:36:00;;;;;;;24.65;15.77;;;16.50;99.90;;;;;;5094069;28;20036;-94
2022/08/14 05:38:28;;;;;;;19.45;14.18;;;16.50;99.90;;;;;;5086593;28;20087;-95
2022/08/14 05:40:55;;;;;;;27.33;14.60;;;16.50;99.90;;;;;;5090598;28;20080;-91
2022/08/14 05:43:21;;;;;;;21.65;14.25;;;16.50;99.90;;;;;;5090254;28;20040;-90
2022/08/14 05:45:48;;;;;;;19.33;12.93;;;16.50;99.90;;;;;;5092072;28;20028;-92
2022/08/14 05:48:17;;;;;;;19.88;13.52;;;16.50;99.90;;;;;;5092712;28;20029;-94
2022/08/14 05:50:45;;;;;;;22.90;14.37;;;16.60;99.90;;;;;;5087277;28;20028;-96
2022/08/14 05:53:12;;;;;;;21.10;14.02;;;16.60;99.90;;;;;;5090111;28;20028;-92
2022/08/14 05:55:37;;;;;;;18.45;13.25;;;16.60;99.90;;;;;;5089303;28;20050;-95
2022/08/14 05:58:06;;;;;;;17.98;13.80;;;16.60;99.90;;;;;;5087424;28;20029;-94
2022/08/14 06:00:40;;;;;;;19.98;13.35;;;16.70;99.90;;;;;;5087700;28;20040;-94
2022/08/14 06:03:09;;;;;;;22.17;13.55;;;16.70;99.90;;;;;;5092465;28;20024;-93
2022/08/14 06:05:36;;;;;;;19.20;12.88;;;16.70;99.90;;;;;;5092748;28;20038;-87
2022/08/14 06:08:03;;;;;;;21.45;12.40;;;16.70;99.90;;;;;;5093092;28;20016;-93
2022/08/14 06:10:33;;;;;;;21.17;13.00;;;16.70;99.90;;;;;;5092368;28;20036;-95
2022/08/14 06:13:02;;;;;;;24.13;13.57;;;16.80;99.90;;;;;;5087523;28;20038;-95
2022/08/14 06:15:27;;;;;;;25.15;13.60;;;16.80;99.90;;;;;;5072213;28;20020;-93
2022/08/14 06:17:56;;;;;;;18.52;13.18;;;16.80;99.90;;;;;;5089205;28;20028;-95
2022/08/14 06:20:23;;;;;;;20.52;12.77;;;16.80;99.90;;;;;;5095663;28;20051;-96
2022/08/14 06:22:49;;;;;;;16.75;12.38;;;16.90;99.90;;;;;;5087953;28;20028;-95
2022/08/14 06:25:15;;;;;;;19.42;12.05;;;16.90;99.90;;;;;;5090331;28;20050;-96
2022/08/14 06:27:44;;;;;;;20.40;13.25;;;17.00;99.90;;;;;;5090375;28;20056;-96
2022/08/14 06:30:18;;;;;;;18.42;12.73;;;17.00;99.90;;;;;;5089786;28;20012;-96
2022/08/14 06:32:47;;;;;;;22.55;13.07;;;17.00;99.90;;;;;;5090667;28;20048;-96
2022/08/14 06:35:14;;;;;;;20.48;12.13;;;17.00;99.90;;;;;;5089016;28;20021;-96
2022/08/14 06:37:42;;;;;;;17.17;11.77;;;17.00;99.90;;;;;;5091032;28;20063;-95
2022/08/14 06:40:11;;;;;;;15.32;11.48;;;17.10;99.90;;;;;;5093896;28;20066;-92
2022/08/14 06:42:37;;;;;;;21.75;12.93;;;17.10;99.90;;;;;;5094848;28;20012;-94
2022/08/14 06:45:04;;;;;;;14.93;9.68;;;17.10;99.90;;;;;;5095267;28;20017;-95
2022/08/14 06:47:36;;;;;;;20.08;12.10;;;17.20;99.90;;;;;;5092697;28;20039;-95
2022/08/14 06:50:09;;;;;;;15.57;12.20;;;17.20;99.90;;;;;;5092268;28;20115;-94
2022/08/14 06:52:35;;;;;;;18.50;10.57;;;17.30;99.90;;;;;;5092961;28;20024;-94
2022/08/14 06:55:01;;;;;;;15.32;10.63;;;17.30;99.90;;;;;;5094094;28;20064;-92
2022/08/14 06:57:37;;;;;;;12.98;7.72;;;17.40;99.90;;;;;;5094922;28;20039;-95
2022/08/14 07:00:06;;;;;;;15.77;10.13;;;17.50;99.90;;;;;;5096636;28;20020;-95
2022/08/14 07:08:04;;;;;;;16.45;11.02;;;17.90;99.90;;;;;;5098419;28;20067;-88
2022/08/14 07:10:30;;;;;;;18.65;11.52;;;17.90;99.90;;;;;;5097927;28;20043;-93
2022/08/14 07:12:57;;;;;;;16.73;12.27;;;18.00;99.90;;;;;;5097086;28;20052;-94
2022/08/14 07:15:22;;;;;;;20.10;12.45;;;18.10;99.90;;;;;;5103014;28;20020;-89
2022/08/14 07:17:50;;;;;;;15.77;12.27;;;18.20;99.90;;;;;;5097803;28;20016;-86
2022/08/14 07:20:19;;;;;;;21.42;13.48;;;18.30;99.90;;;;;;5096113;28;20009;-90
2022/08/14 07:22:49;;;;;;;22.13;13.27;;;18.40;99.90;;;;;;5093751;28;20019;-88
2022/08/14 07:25:15;;;;;;;16.30;12.23;;;18.40;99.90;;;;;;5092883;28;20032;-86
2022/08/14 07:27:41;;;;;;;17.45;12.20;;;18.50;99.90;;;;;;5095490;28;20063;-84
2022/08/14 07:30:08;;;;;;;18.48;11.85;;;18.50;99.90;;;;;;5094724;28;20025;-85
2022/08/14 07:32:34;;;;;;;19.60;11.85;;;18.50;99.90;;;;;;5093849;28;20118;-90
2022/08/14 07:35:00;;;;;;;19.10;11.90;;;18.60;99.90;;;;;;5088323;28;20032;-87
2022/08/14 07:37:25;;;;;;;21.13;12.00;;;18.70;99.90;;;;;;5088052;28;20040;-92
2022/08/14 07:39:51;;;;;;;19.90;12.65;;;18.70;99.90;;;;;;5089164;28;20430;-86
2022/08/14 07:42:17;;;;;;;19.30;11.55;;;18.70;99.90;;;;;;5090689;28;20119;-93
2022/08/14 07:44:44;;;;;;;16.20;12.20;;;18.80;99.90;;;;;;5078113;28;20123;-94
2022/08/14 07:47:10;;;;;;;17.33;11.43;;;18.90;99.90;;;;;;5070721;28;20047;-92
2022/08/14 07:49:36;;;;;;;10.63;6.82;;;19.00;99.90;;;;;;5074542;28;20109;-93
2022/08/14 07:52:02;;;;;;;14.32;10.73;;;19.00;99.90;;;;;;5074053;28;20059;-92
2022/08/14 07:54:28;;;;;;;15.15;11.75;;;19.10;99.90;;;;;;5077532;28;20040;-93
2022/08/14 07:56:54;;;;;;;19.30;11.07;;;19.20;99.90;;;;;;5076674;28;20374;-91
2022/08/14 07:59:22;;;;;;;14.77;9.90;;;19.30;99.90;;;;;;5072719;28;20093;-91
2022/08/14 08:01:47;;;;;;;14.27;8.27;;;19.40;99.90;;;;;;5070513;28;20031;-92
2022/08/14 08:04:14;;;;;;;14.23;9.60;;;19.50;99.90;;;;;;5071338;28;20016;-93
2022/08/14 08:06:40;;;;;;;23.13;10.20;;;19.60;99.90;;;;;;5104465;28;20029;-95
2022/08/14 08:09:08;;;;;;;17.80;10.82;;;19.70;99.90;;;;;;5074455;28;20028;-94
2022/08/14 08:11:35;;;;;;;14.18;10.93;;;19.80;99.90;;;;;;5078253;28;20032;-94
2022/08/14 08:14:05;;;;;;;13.43;10.35;;;19.90;99.90;;;;;;5081147;28;20332;-92
2022/08/14 08:16:33;;;;;;;15.52;10.13;;;20.10;99.90;;;;;;5089495;28;20032;-86
2022/08/14 08:18:59;;;;;;;18.05;10.80;;;20.20;99.90;;;;;;5093417;28;20076;-87
2022/08/14 08:21:28;;;;;;;16.00;10.50;;;20.30;99.90;;;;;;5093944;28;20039;-88
2022/08/14 08:23:53;;;;;;;11.85;9.20;;;20.50;99.90;;;;;;5094608;28;20092;-90
2022/08/14 08:26:19;;;;;;;16.83;9.27;;;20.60;99.90;;;;;;5093047;28;20013;-88
2022/08/14 08:28:56;;;;;;;14.70;8.63;;;20.70;99.90;;;;;;5089514;28;20092;-88
2022/08/14 08:31:22;;;;;;;14.23;8.55;;;20.90;99.90;;;;;;5093829;28;20008;-87
2022/08/14 08:33:52;;;;;;;12.68;7.80;;;21.00;99.90;;;;;;5082370;28;20062;-96
2022/08/14 08:36:18;;;;;;;12.95;7.60;;;21.20;99.90;;;;;;5085918;28;20028;-93
2022/08/14 08:38:45;;;;;;;12.85;8.30;;;21.40;99.90;;;;;;5088147;28;20032;-93
2022/08/14 08:41:11;;;;;;;13.82;7.70;;;21.60;99.90;;;;;;5080417;28;20039;-95
2022/08/14 08:43:38;;;;;;;13.52;7.85;;;21.70;99.90;;;;;;5078844;28;20237;-95
2022/08/14 08:46:13;;;;;;;11.65;7.35;;;21.90;99.90;;;;;;5081456;28;20079;-92
2022/08/14 08:48:48;;;;;;;10.43;6.97;;;22.10;99.90;;;;;;5083358;28;20086;-94
2022/08/14 08:51:32;;;;;;;12.15;6.13;;;22.20;99.60;;;;;;5080663;28;20032;-96
2022/08/14 08:54:03;;;;;;;11.43;6.45;;;22.40;98.80;;;;;;5080213;28;20086;-96
2022/08/14 08:56:38;;;;;;;12.50;6.53;;;22.60;98.00;;;;;;5076817;28;20028;-96
2022/08/14 08:59:18;;;;;;;9.57;6.05;;;22.80;97.00;;;;;;5081448;28;20021;-95
2022/08/14 09:01:57;;;;;;;12.88;5.55;;;23.00;96.30;;;;;;5072945;28;20036;-94
2022/08/14 09:04:26;;;;;;;9.30;5.20;;;23.20;95.50;;;;;;5080893;28;20029;-94
2022/08/14 09:06:52;;;;;;;7.68;5.03;;;23.30;94.50;;;;;;5085695;28;20032;-91
2022/08/14 09:09:24;;;;;;;6.68;4.97;;;23.60;93.80;;;;;;5087552;28;20048;-92
2022/08/14 09:11:55;;;;;;;5.65;4.45;;;23.80;92.90;;;;;;5085775;28;20036;-94
2022/08/14 09:14:26;;;;;;;8.20;5.00;;;24.00;92.00;;;;;;5083161;28;20028;-94
2022/08/14 09:16:51;;;;;;;6.70;4.55;;;24.20;90.90;;;;;;5075429;28;20119;-95
2022/08/14 09:19:18;;;;;;;4.88;3.90;;;24.40;89.80;;;;;;5075758;28;20129;-94
2022/08/14 09:21:45;;;;;;;6.88;4.40;;;24.60;88.00;;;;;;5077782;28;20036;-92
2022/08/14 09:24:14;;;;;;;8.95;4.35;;;24.70;86.40;;;;;;5074922;28;20082;-93
2022/08/14 09:26:43;;;;;;;10.60;4.35;;;24.90;84.70;;;;;;5080355;28;20025;-94
2022/08/14 09:29:09;;;;;;;5.80;3.35;;;25.20;83.10;;;;;;5086172;28;20016;-93
2022/08/14 09:31:39;;;;;;;8.32;4.32;;;25.40;81.80;;;;;;5089659;28;20096;-91
2022/08/14 09:34:19;;;;;;;6.07;3.78;;;25.60;80.20;;;;;;5086602;28;20049;-94
2022/08/14 09:37:02;;;;;;;5.50;3.42;;;25.70;78.60;;;;;;5086591;28;20028;-92
2022/08/14 09:39:44;;;;;;;7.15;3.40;;;25.90;76.90;;;;;;5073805;28;20107;-94
2022/08/14 09:42:37;;;;;;;4.82;3.00;;;26.20;75.90;;;;;;5075363;28;20036;-94
2022/08/14 09:45:40;;;;;;;5.25;3.20;;;26.40;73.80;;;;;;5073479;28;20077;-93
2022/08/14 09:48:20;;;;;;;8.43;3.22;;;26.50;72.40;;;;;;5062732;28;20032;-93
2022/08/14 09:50:52;;;;;;;5.38;3.28;;;26.80;71.40;;;;;;5076406;28;20021;-95
2022/08/14 09:53:43;;;;;;;6.90;3.10;;;26.90;70.30;;;;;;5072982;28;20033;-96
2022/08/14 09:56:12;;;;;;;5.75;3.03;;;27.10;68.60;;;;;;5081970;28;20062;-96
2022/08/14 09:58:41;;;;;;;6.57;3.08;;;27.30;67.60;;;;;;5076442;28;20154;-95
2022/08/14 10:01:12;;;;;;;7.27;3.13;;;27.40;67.10;;;;;;5080343;28;20017;-96
2022/08/14 10:03:49;;;;;;;8.95;3.72;;;27.60;66.30;;;;;;5084713;28;20029;-95
2022/08/14 10:06:17;;;;;;;4.47;2.80;;;27.70;65.70;;;;;;5091152;28;20028;-95
2022/08/14 10:09:05;;;;;;;4.32;2.72;;;27.80;65.20;;;;;;5091081;28;20025;-95
2022/08/14 10:11:36;;;;;;;8.45;2.83;;;27.90;62.40;;;;;;5089628;28;20016;-94
2022/08/14 10:14:17;;;;;;;7.80;2.80;;;28.00;61.00;;;;;;5070378;28;20040;-96
2022/08/14 10:16:56;;;;;;;3.97;2.97;;;28.10;60.10;;;;;;5086737;28;20024;-93
2022/08/14 10:19:27;;;;;;;4.53;3.00;;;28.20;59.10;;;;;;5081046;28;20032;-95
2022/08/14 10:22:09;;;;;;;7.15;2.63;;;28.30;59.20;;;;;;5083437;28;20055;-96
2022/08/14 10:24:40;;;;;;;4.80;2.70;;;28.40;58.60;;;;;;5083828;28;20059;-96
2022/08/14 10:27:24;;;;;;;6.35;2.72;;;28.60;58.20;;;;;;5086596;28;20112;-95
2022/08/14 10:30:00;;;;;;;4.38;3.00;;;28.90;57.70;;;;;;5079603;28;20055;-95
2022/08/14 10:32:57;;;;;;;5.15;2.80;;;29.00;57.20;;;;;;5077093;28;20056;-95
2022/08/14 10:35:23;;;;;;;5.82;2.70;;;29.10;56.30;;;;;;5100171;28;20203;-96
2022/08/14 10:37:52;;;;;;;4.13;2.80;;;29.20;56.00;;;;;;5118153;28;20056;-96
2022/08/14 10:40:29;;;;;;;6.22;3.08;;;29.30;55.50;;;;;;5118663;28;20027;-95
2022/08/14 10:43:14;;;;;;;4.07;2.42;;;29.40;54.80;;;;;;5083361;28;20024;-94
2022/08/14 10:45:53;;;;;;;7.85;3.35;;;29.60;54.80;;;;;;5089934;28;20481;-95
2022/08/14 10:48:23;;;;;;;4.45;3.30;;;29.60;53.90;;;;;;5090793;28;20096;-96
2022/08/14 10:50:52;;;;;;;;;;;29.60;53.90;;;;;;5092516;28;20032;-96
2022/08/14 10:53:36;;;;;;;5.10;2.60;;;29.60;54.10;;;;;;5094657;28;19912;-92
2022/08/14 10:56:09;;;;;;;5.68;2.80;;;29.70;53.10;;;;;;5085747;28;20119;-95
2022/08/14 10:58:38;;;;;;;6.00;2.92;;;29.70;53.10;;;;;;5084088;28;20077;-96
2022/08/14 11:01:06;;;;;;;5.20;2.90;;;29.70;53.00;;;;;;5086413;28;20021;-95
2022/08/14 11:03:42;;;;;;;5.53;3.05;;;29.90;52.80;;;;;;5086143;28;20020;-95
2022/08/14 11:06:21;;;;;;;3.75;3.00;;;30.10;52.40;;;;;;5086550;28;20025;-95
2022/08/14 11:08:47;;;;;;;11.18;2.78;;;30.20;52.10;;;;;;5075386;28;20031;-94
2022/08/14 11:11:16;;;;;;;6.57;3.15;;;30.40;51.50;;;;;;5093819;28;20045;-92
2022/08/14 11:13:45;;;;;;;5.93;2.58;;;30.40;50.70;;;;;;5091665;28;20059;-93
2022/08/14 11:16:12;;;;;;;5.28;2.70;;;30.50;50.90;;;;;;5086550;28;20013;-94
2022/08/14 11:18:42;;;;;;;4.13;2.67;;;30.70;51.10;;;;;;5089024;28;20029;-95
2022/08/14 11:21:08;;;;;;;5.00;2.85;;;30.80;50.30;;;;;;5074561;28;20029;-94
2022/08/14 11:23:37;;;;;;;4.82;2.70;;;31.00;50.00;;;;;;5116834;28;20020;-92
2022/08/14 11:26:05;;;;;;;5.15;3.08;;;31.00;49.40;;;;;;5076654;28;20017;-95
2022/08/14 11:28:40;;;;;;;3.83;2.63;;;31.00;49.50;;;;;;5109077;28;20115;-96
2022/08/14 11:31:09;;;;;;;4.68;2.63;;;31.20;49.60;;;;;;5082448;28;20397;-93
2022/08/14 11:33:37;;;;;;;3.88;2.70;;;31.40;49.10;;;;;;5078195;28;20060;-95
2022/08/14 11:36:05;;;;;;;6.65;2.60;;;31.40;48.50;;;;;;5073018;28;20035;-93
2022/08/14 11:38:42;;;;;;;4.32;2.47;;;31.50;48.20;;;;;;5072443;28;20085;-93
2022/08/14 11:41:15;;;;;;;3.97;2.40;;;31.70;48.30;;;;;;5075899;28;20025;-96
2022/08/14 11:43:46;;;;;;;5.57;2.45;;;31.70;48.00;;;;;;5074629;28;20033;-95
2022/08/14 11:46:12;;;;;;;6.95;2.50;;;31.90;47.30;;;;;;5099791;28;20115;-95
2022/08/14 11:48:50;;;;;;;5.60;2.95;;;32.00;46.80;;;;;;5070087;28;20037;-96
2022/08/14 11:51:39;;;;;;;7.60;2.95;;;32.10;46.90;;;;;;5067822;28;20016;-96
2022/08/14 11:54:06;;;;;;;5.82;3.00;;;32.50;46.90;;;;;;5102311;28;20045;-95
2022/08/14 11:56:38;;;;;;;5.63;2.80;;;32.70;46.90;;;;;;5067416;28;20047;-94
2022/08/14 11:59:06;;;;;;;7.75;3.10;;;32.80;46.60;;;;;;5066061;28;20021;-94
2022/08/14 12:01:32;;;;;;;5.43;3.20;;;32.70;46.50;;;;;;5087239;28;20029;-95
2022/08/14 12:04:18;;;;;;;6.43;3.05;;;32.80;46.50;;;;;;5070451;28;20029;-95
2022/08/14 12:06:51;;;;;;;7.05;3.17;;;32.80;46.40;;;;;;5104906;28;20039;-94
2022/08/14 12:09:30;;;;;;;7.05;3.10;;;32.80;46.30;;;;;;5077179;28;20009;-93
2022/08/14 12:11:56;;;;;;;6.07;3.00;;;32.90;46.60;;;;;;5077893;28;20059;-95
2022/08/14 12:14:22;;;;;;;6.20;3.90;;;33.00;46.60;;;;;;5070852;28;20041;-93
2022/08/14 12:17:06;;;;;;;11.05;3.80;;;33.10;46.80;;;;;;5112748;28;20350;-94
2022/08/14 12:20:02;;;;;;;7.28;3.45;;;32.90;46.40;;;;;;5074179;28;20024;-95
2022/08/14 12:22:44;;;;;;;6.80;3.75;;;32.80;46.40;;;;;;5074416;28;20028;-94
2022/08/14 12:25:18;;;;;;;4.80;3.03;;;32.80;46.30;;;;;;5071035;28;20025;-93
2022/08/14 12:27:48;;;;;;;8.02;3.42;;;32.90;45.80;;;;;;5079588;28;20036;-92
2022/08/14 12:30:28;;;;;;;6.55;3.10;;;33.10;45.50;;;;;;5082102;28;20016;-94
2022/08/14 12:32:55;;;;;;;;;;;33.40;45.00;;;;;;5091793;28;20116;-92
2022/08/14 12:35:22;;;;;;;3.30;2.63;;;33.50;44.30;;;;;;5072965;28;19927;-93
2022/08/14 12:37:51;;;;;;;4.60;3.00;;;33.60;44.50;;;;;;5084159;28;20070;-95
2022/08/14 12:40:23;;;;;;;6.53;3.10;;;33.80;44.20;;;;;;5079836;28;20021;-95
2022/08/14 12:42:52;;;;;;;5.35;3.65;;;34.00;43.90;;;;;;5077142;28;20024;-94
2022/08/14 12:45:30;;;;;;;10.73;3.90;;;34.10;43.30;;;;;;5074185;28;20023;-93
2022/08/14 12:48:00;;;;;;;4.43;3.05;;;34.10;42.70;;;;;;5072811;28;20021;-94
2022/08/14 12:50:38;;;;;;;4.82;3.30;;;34.10;42.50;;;;;;5073045;28;20036;-95
2022/08/14 12:53:04;;;;;;;5.55;3.50;;;34.30;42.50;;;;;;5069982;28;20071;-93
2022/08/14 12:55:33;;;;;;;8.32;3.33;;;34.40;42.50;;;;;;5081874;28;20073;-95
2022/08/14 12:58:10;;;;;;;7.07;3.50;;;34.50;42.70;;;;;;5070868;28;20021;-95
2022/08/14 13:00:49;;;;;;;6.07;3.65;;;34.70;42.70;;;;;;5085724;28;20021;-96
2022/08/14 13:03:25;;;;;;;7.70;3.47;;;34.90;42.20;;;;;;5065611;28;20029;-95
2022/08/14 13:05:59;;;;;;;7.15;3.45;;;35.00;42.00;;;;;;5086782;28;20024;-89
2022/08/14 13:08:25;;;;;;;6.15;3.65;;;35.00;41.70;;;;;;5073298;28;20044;-96
2022/08/14 13:10:52;;;;;;;3.90;3.13;;;35.00;41.70;;;;;;5079865;28;20024;-94